sensor_id;sensor_type;location;lat;lon;timestamp;P1;durP1;ratioP1;P2;durP2;ratioP2
18905;SDS011;9585;51.018;4.282;2023-11-19T00:00:31;7.03;;;2.10;;
18905;SDS011;9585;51.018;4.282;2023-11-19T00:02:59;5.88;;;1.95;;
18905;SDS011;9585;51.018;4.282;2023-11-19T00:05:27;6.75;;;2.10;;
18905;SDS011;9585;51.018;4.282;2023-11-19T00:07:55;6.22;;;2.70;;
18905;SDS011;9585;51.018;4.282;2023-11-19T00:10:25;9.52;;;2.30;;
18905;SDS011;9585;51.018;4.282;2023-11-19T00:12:53;8.38;;;2.10;;
18905;SDS011;9585;51.018;4.282;2023-11-19T00:15:22;8.73;;;2.35;;
18905;SDS011;9585;51.018;4.282;2023-11-19T00:17:50;6.55;;;1.83;;
18905;SDS011;9585;51.018;4.282;2023-11-19T00:20:18;4.82;;;2.05;;
18905;SDS011;9585;51.018;4.282;2023-11-19T00:22:47;10.13;;;2.30;;
18905;SDS011;9585;51.018;4.282;2023-11-19T00:25:16;6.05;;;2.13;;
18905;SDS011;9585;51.018;4.282;2023-11-19T00:27:46;6.65;;;1.88;;
18905;SDS011;9585;51.018;4.282;2023-11-19T00:30:14;8.80;;;1.80;;
18905;SDS011;9585;51.018;4.282;2023-11-19T00:32:42;5.65;;;1.95;;
18905;SDS011;9585;51.018;4.282;2023-11-19T00:35:10;7.80;;;2.60;;
18905;SDS011;9585;51.018;4.282;2023-11-19T00:37:40;13.60;;;2.63;;
18905;SDS011;9585;51.018;4.282;2023-11-19T00:40:11;10.05;;;2.10;;
18905;SDS011;9585;51.018;4.282;2023-11-19T00:42:41;6.72;;;2.20;;
18905;SDS011;9585;51.018;4.282;2023-11-19T00:45:10;11.88;;;2.55;;
18905;SDS011;9585;51.018;4.282;2023-11-19T00:47:38;10.15;;;2.30;;
18905;SDS011;9585;51.018;4.282;2023-11-19T00:50:06;10.43;;;2.63;;
18905;SDS011;9585;51.018;4.282;2023-11-19T00:52:36;9.40;;;2.60;;
18905;SDS011;9585;51.018;4.282;2023-11-19T00:55:05;7.82;;;2.20;;
18905;SDS011;9585;51.018;4.282;2023-11-19T00:57:32;7.50;;;2.22;;
18905;SDS011;9585;51.018;4.282;2023-11-19T01:00:01;13.57;;;3.10;;
18905;SDS011;9585;51.018;4.282;2023-11-19T01:02:46;12.45;;;2.25;;
18905;SDS011;9585;51.018;4.282;2023-11-19T01:05:18;9.73;;;2.28;;
18905;SDS011;9585;51.018;4.282;2023-11-19T01:07:48;9.65;;;2.50;;
18905;SDS011;9585;51.018;4.282;2023-11-19T01:10:15;11.10;;;2.42;;
18905;SDS011;9585;51.018;4.282;2023-11-19T01:12:44;9.18;;;2.25;;
18905;SDS011;9585;51.018;4.282;2023-11-19T01:15:12;15.15;;;2.75;;
18905;SDS011;9585;51.018;4.282;2023-11-19T01:17:41;12.23;;;2.65;;
18905;SDS011;9585;51.018;4.282;2023-11-19T01:20:09;12.20;;;2.53;;
18905;SDS011;9585;51.018;4.282;2023-11-19T01:22:38;9.85;;;2.60;;
18905;SDS011;9585;51.018;4.282;2023-11-19T01:25:06;10.27;;;2.47;;
18905;SDS011;9585;51.018;4.282;2023-11-19T01:27:34;12.35;;;2.55;;
18905;SDS011;9585;51.018;4.282;2023-11-19T01:30:03;12.98;;;3.30;;
18905;SDS011;9585;51.018;4.282;2023-11-19T01:32:35;12.55;;;2.85;;
18905;SDS011;9585;51.018;4.282;2023-11-19T01:35:05;12.07;;;3.00;;
18905;SDS011;9585;51.018;4.282;2023-11-19T01:37:33;17.02;;;2.70;;
18905;SDS011;9585;51.018;4.282;2023-11-19T01:40:02;13.00;;;3.03;;
18905;SDS011;9585;51.018;4.282;2023-11-19T01:42:35;11.27;;;2.70;;
18905;SDS011;9585;51.018;4.282;2023-11-19T01:45:04;14.40;;;3.03;;
18905;SDS011;9585;51.018;4.282;2023-11-19T01:47:34;13.63;;;3.40;;
18905;SDS011;9585;51.018;4.282;2023-11-19T01:50:02;18.17;;;3.67;;
18905;SDS011;9585;51.018;4.282;2023-11-19T01:52:33;22.70;;;3.78;;
18905;SDS011;9585;51.018;4.282;2023-11-19T01:55:03;17.48;;;3.63;;
18905;SDS011;9585;51.018;4.282;2023-11-19T01:57:33;15.15;;;3.45;;
18905;SDS011;9585;51.018;4.282;2023-11-19T02:00:03;18.17;;;3.33;;
18905;SDS011;9585;51.018;4.282;2023-11-19T02:02:32;16.38;;;3.38;;
18905;SDS011;9585;51.018;4.282;2023-11-19T02:05:00;14.18;;;2.40;;
18905;SDS011;9585;51.018;4.282;2023-11-19T02:07:29;13.82;;;2.60;;
18905;SDS011;9585;51.018;4.282;2023-11-19T02:09:57;16.80;;;3.10;;
18905;SDS011;9585;51.018;4.282;2023-11-19T02:12:27;12.43;;;2.58;;
18905;SDS011;9585;51.018;4.282;2023-11-19T02:14:55;16.05;;;3.40;;
18905;SDS011;9585;51.018;4.282;2023-11-19T02:17:27;18.63;;;3.80;;
18905;SDS011;9585;51.018;4.282;2023-11-19T02:19:56;14.88;;;3.17;;
18905;SDS011;9585;51.018;4.282;2023-11-19T02:22:24;15.02;;;2.70;;
18905;SDS011;9585;51.018;4.282;2023-11-19T02:24:55;12.77;;;2.50;;
18905;SDS011;9585;51.018;4.282;2023-11-19T02:27:28;15.38;;;3.05;;
18905;SDS011;9585;51.018;4.282;2023-11-19T02:30:08;16.25;;;2.50;;
18905;SDS011;9585;51.018;4.282;2023-11-19T02:32:40;15.10;;;2.97;;
18905;SDS011;9585;51.018;4.282;2023-11-19T02:35:08;15.57;;;2.85;;
18905;SDS011;9585;51.018;4.282;2023-11-19T02:37:37;16.80;;;2.92;;
18905;SDS011;9585;51.018;4.282;2023-11-19T02:40:06;16.60;;;3.03;;
18905;SDS011;9585;51.018;4.282;2023-11-19T02:42:34;20.90;;;3.50;;
18905;SDS011;9585;51.018;4.282;2023-11-19T02:45:04;19.70;;;4.72;;
18905;SDS011;9585;51.018;4.282;2023-11-19T02:47:33;13.85;;;3.78;;
18905;SDS011;9585;51.018;4.282;2023-11-19T02:50:01;15.70;;;2.97;;
18905;SDS011;9585;51.018;4.282;2023-11-19T02:52:32;17.05;;;3.33;;
18905;SDS011;9585;51.018;4.282;2023-11-19T02:55:03;18.77;;;3.45;;
18905;SDS011;9585;51.018;4.282;2023-11-19T02:57:34;18.77;;;3.97;;
18905;SDS011;9585;51.018;4.282;2023-11-19T03:00:04;18.83;;;3.42;;
18905;SDS011;9585;51.018;4.282;2023-11-19T03:02:39;21.17;;;3.40;;
18905;SDS011;9585;51.018;4.282;2023-11-19T03:05:11;17.95;;;3.17;;
18905;SDS011;9585;51.018;4.282;2023-11-19T03:07:40;20.15;;;3.63;;
18905;SDS011;9585;51.018;4.282;2023-11-19T03:10:09;17.63;;;3.55;;
18905;SDS011;9585;51.018;4.282;2023-11-19T03:12:40;18.88;;;3.58;;
18905;SDS011;9585;51.018;4.282;2023-11-19T03:15:10;13.80;;;3.42;;
18905;SDS011;9585;51.018;4.282;2023-11-19T03:17:38;18.83;;;3.47;;
18905;SDS011;9585;51.018;4.282;2023-11-19T03:20:07;19.55;;;3.22;;
18905;SDS011;9585;51.018;4.282;2023-11-19T03:22:37;16.50;;;3.28;;
18905;SDS011;9585;51.018;4.282;2023-11-19T03:25:03;17.10;;;3.65;;
18905;SDS011;9585;51.018;4.282;2023-11-19T03:27:34;15.45;;;2.80;;
18905;SDS011;9585;51.018;4.282;2023-11-19T03:30:02;19.48;;;3.67;;
18905;SDS011;9585;51.018;4.282;2023-11-19T03:32:33;16.30;;;3.00;;
18905;SDS011;9585;51.018;4.282;2023-11-19T03:35:01;17.73;;;3.20;;
18905;SDS011;9585;51.018;4.282;2023-11-19T03:37:29;20.25;;;3.15;;
18905;SDS011;9585;51.018;4.282;2023-11-19T03:39:58;20.70;;;3.20;;
18905;SDS011;9585;51.018;4.282;2023-11-19T03:42:27;15.35;;;2.80;;
18905;SDS011;9585;51.018;4.282;2023-11-19T03:44:53;17.58;;;3.13;;
18905;SDS011;9585;51.018;4.282;2023-11-19T03:47:21;18.80;;;3.15;;
18905;SDS011;9585;51.018;4.282;2023-11-19T03:49:52;16.50;;;3.40;;
18905;SDS011;9585;51.018;4.282;2023-11-19T03:52:20;17.30;;;3.15;;
18905;SDS011;9585;51.018;4.282;2023-11-19T03:54:48;16.63;;;3.00;;
18905;SDS011;9585;51.018;4.282;2023-11-19T03:57:16;17.48;;;3.08;;
18905;SDS011;9585;51.018;4.282;2023-11-19T03:59:44;22.65;;;3.88;;
18905;SDS011;9585;51.018;4.282;2023-11-19T04:02:12;14.80;;;3.15;;
18905;SDS011;9585;51.018;4.282;2023-11-19T04:04:40;16.83;;;3.42;;
18905;SDS011;9585;51.018;4.282;2023-11-19T04:07:09;21.10;;;4.13;;
18905;SDS011;9585;51.018;4.282;2023-11-19T04:09:37;23.25;;;4.07;;
18905;SDS011;9585;51.018;4.282;2023-11-19T04:12:05;22.90;;;4.15;;
18905;SDS011;9585;51.018;4.282;2023-11-19T04:14:34;19.48;;;3.53;;
18905;SDS011;9585;51.018;4.282;2023-11-19T04:17:03;21.00;;;4.13;;
18905;SDS011;9585;51.018;4.282;2023-11-19T04:19:31;17.90;;;3.75;;
18905;SDS011;9585;51.018;4.282;2023-11-19T04:21:59;19.25;;;3.55;;
18905;SDS011;9585;51.018;4.282;2023-11-19T04:24:29;19.33;;;3.55;;
18905;SDS011;9585;51.018;4.282;2023-11-19T04:26:56;21.50;;;4.15;;
18905;SDS011;9585;51.018;4.282;2023-11-19T04:29:24;18.30;;;3.30;;
18905;SDS011;9585;51.018;4.282;2023-11-19T04:31:52;20.40;;;3.92;;
18905;SDS011;9585;51.018;4.282;2023-11-19T04:34:20;25.52;;;4.43;;
18905;SDS011;9585;51.018;4.282;2023-11-19T04:36:48;20.67;;;3.97;;
18905;SDS011;9585;51.018;4.282;2023-11-19T04:39:16;20.35;;;3.88;;
18905;SDS011;9585;51.018;4.282;2023-11-19T04:41:49;22.40;;;3.38;;
18905;SDS011;9585;51.018;4.282;2023-11-19T04:44:17;21.85;;;3.97;;
18905;SDS011;9585;51.018;4.282;2023-11-19T04:46:45;19.33;;;4.25;;
18905;SDS011;9585;51.018;4.282;2023-11-19T04:49:13;25.02;;;4.30;;
18905;SDS011;9585;51.018;4.282;2023-11-19T04:51:42;20.70;;;4.57;;
18905;SDS011;9585;51.018;4.282;2023-11-19T04:54:12;19.48;;;4.18;;
18905;SDS011;9585;51.018;4.282;2023-11-19T04:56:40;19.63;;;4.45;;
18905;SDS011;9585;51.018;4.282;2023-11-19T04:59:14;24.02;;;4.38;;
18905;SDS011;9585;51.018;4.282;2023-11-19T05:01:46;20.95;;;3.83;;
18905;SDS011;9585;51.018;4.282;2023-11-19T05:04:14;21.88;;;4.53;;
18905;SDS011;9585;51.018;4.282;2023-11-19T05:06:44;22.38;;;3.78;;
18905;SDS011;9585;51.018;4.282;2023-11-19T05:09:11;25.65;;;4.50;;
18905;SDS011;9585;51.018;4.282;2023-11-19T05:11:39;22.08;;;4.15;;
18905;SDS011;9585;51.018;4.282;2023-11-19T05:14:07;15.77;;;3.63;;
18905;SDS011;9585;51.018;4.282;2023-11-19T05:16:37;24.40;;;4.68;;
18905;SDS011;9585;51.018;4.282;2023-11-19T05:19:06;23.63;;;4.28;;
18905;SDS011;9585;51.018;4.282;2023-11-19T05:21:34;17.65;;;3.78;;
18905;SDS011;9585;51.018;4.282;2023-11-19T05:24:02;22.77;;;4.53;;
18905;SDS011;9585;51.018;4.282;2023-11-19T05:26:30;26.02;;;4.60;;
18905;SDS011;9585;51.018;4.282;2023-11-19T05:28:58;24.25;;;4.32;;
18905;SDS011;9585;51.018;4.282;2023-11-19T05:31:26;27.00;;;4.20;;
18905;SDS011;9585;51.018;4.282;2023-11-19T05:33:55;25.17;;;4.88;;
18905;SDS011;9585;51.018;4.282;2023-11-19T05:36:23;23.98;;;4.50;;
18905;SDS011;9585;51.018;4.282;2023-11-19T05:38:51;28.17;;;4.60;;
18905;SDS011;9585;51.018;4.282;2023-11-19T05:41:19;23.35;;;4.32;;
18905;SDS011;9585;51.018;4.282;2023-11-19T05:43:46;24.15;;;4.65;;
18905;SDS011;9585;51.018;4.282;2023-11-19T05:46:14;24.10;;;4.28;;
18905;SDS011;9585;51.018;4.282;2023-11-19T05:48:42;20.88;;;4.18;;
18905;SDS011;9585;51.018;4.282;2023-11-19T05:51:14;22.13;;;4.25;;
18905;SDS011;9585;51.018;4.282;2023-11-19T05:53:42;20.05;;;4.45;;
18905;SDS011;9585;51.018;4.282;2023-11-19T05:56:11;23.77;;;4.10;;
18905;SDS011;9585;51.018;4.282;2023-11-19T05:58:41;29.00;;;4.65;;
18905;SDS011;9585;51.018;4.282;2023-11-19T06:01:10;23.75;;;4.75;;
18905;SDS011;9585;51.018;4.282;2023-11-19T06:03:38;23.98;;;4.25;;
18905;SDS011;9585;51.018;4.282;2023-11-19T06:06:06;25.02;;;4.40;;
18905;SDS011;9585;51.018;4.282;2023-11-19T06:08:35;20.20;;;4.30;;
18905;SDS011;9585;51.018;4.282;2023-11-19T06:11:04;22.48;;;3.90;;
18905;SDS011;9585;51.018;4.282;2023-11-19T06:13:31;18.50;;;3.67;;
18905;SDS011;9585;51.018;4.282;2023-11-19T06:15:59;23.38;;;4.38;;
18905;SDS011;9585;51.018;4.282;2023-11-19T06:18:28;22.73;;;3.92;;
18905;SDS011;9585;51.018;4.282;2023-11-19T06:20:56;18.48;;;3.72;;
18905;SDS011;9585;51.018;4.282;2023-11-19T06:23:24;22.30;;;4.53;;
18905;SDS011;9585;51.018;4.282;2023-11-19T06:25:53;23.00;;;4.22;;
18905;SDS011;9585;51.018;4.282;2023-11-19T06:28:21;24.85;;;4.55;;
18905;SDS011;9585;51.018;4.282;2023-11-19T06:30:49;22.85;;;4.10;;
18905;SDS011;9585;51.018;4.282;2023-11-19T06:33:17;21.67;;;4.10;;
18905;SDS011;9585;51.018;4.282;2023-11-19T06:35:45;27.77;;;4.85;;
18905;SDS011;9585;51.018;4.282;2023-11-19T06:38:13;22.08;;;4.38;;
18905;SDS011;9585;51.018;4.282;2023-11-19T06:40:40;26.65;;;4.40;;
18905;SDS011;9585;51.018;4.282;2023-11-19T06:43:10;25.63;;;4.85;;
18905;SDS011;9585;51.018;4.282;2023-11-19T06:45:37;26.83;;;4.22;;
18905;SDS011;9585;51.018;4.282;2023-11-19T06:48:05;26.17;;;4.30;;
18905;SDS011;9585;51.018;4.282;2023-11-19T06:50:33;23.52;;;4.32;;
18905;SDS011;9585;51.018;4.282;2023-11-19T06:53:01;18.77;;;4.05;;
18905;SDS011;9585;51.018;4.282;2023-11-19T06:55:30;20.30;;;4.07;;
18905;SDS011;9585;51.018;4.282;2023-11-19T06:57:59;29.67;;;4.88;;
18905;SDS011;9585;51.018;4.282;2023-11-19T07:00:30;21.45;;;3.65;;
18905;SDS011;9585;51.018;4.282;2023-11-19T07:02:58;20.98;;;4.22;;
18905;SDS011;9585;51.018;4.282;2023-11-19T07:05:26;23.42;;;4.38;;
18905;SDS011;9585;51.018;4.282;2023-11-19T07:07:54;20.20;;;4.47;;
18905;SDS011;9585;51.018;4.282;2023-11-19T07:10:21;20.52;;;4.00;;
18905;SDS011;9585;51.018;4.282;2023-11-19T07:12:49;22.83;;;4.88;;
18905;SDS011;9585;51.018;4.282;2023-11-19T07:15:20;28.58;;;5.32;;
18905;SDS011;9585;51.018;4.282;2023-11-19T07:17:49;25.15;;;4.15;;
18905;SDS011;9585;51.018;4.282;2023-11-19T07:20:19;28.25;;;5.10;;
18905;SDS011;9585;51.018;4.282;2023-11-19T07:22:47;26.98;;;4.47;;
18905;SDS011;9585;51.018;4.282;2023-11-19T07:25:14;21.83;;;4.20;;
18905;SDS011;9585;51.018;4.282;2023-11-19T07:27:41;20.65;;;3.95;;
18905;SDS011;9585;51.018;4.282;2023-11-19T07:30:10;27.08;;;4.97;;
18905;SDS011;9585;51.018;4.282;2023-11-19T07:32:37;21.83;;;3.95;;
18905;SDS011;9585;51.018;4.282;2023-11-19T07:35:07;28.27;;;5.10;;
18905;SDS011;9585;51.018;4.282;2023-11-19T07:37:35;23.65;;;4.22;;
18905;SDS011;9585;51.018;4.282;2023-11-19T07:40:03;26.75;;;4.72;;
18905;SDS011;9585;51.018;4.282;2023-11-19T07:42:31;20.38;;;4.38;;
18905;SDS011;9585;51.018;4.282;2023-11-19T07:44:59;21.88;;;4.85;;
18905;SDS011;9585;51.018;4.282;2023-11-19T07:47:27;25.08;;;4.38;;
18905;SDS011;9585;51.018;4.282;2023-11-19T07:49:55;22.92;;;4.20;;
18905;SDS011;9585;51.018;4.282;2023-11-19T07:52:24;22.02;;;4.65;;
18905;SDS011;9585;51.018;4.282;2023-11-19T07:54:52;25.27;;;4.10;;
18905;SDS011;9585;51.018;4.282;2023-11-19T07:57:19;29.55;;;4.90;;
18905;SDS011;9585;51.018;4.282;2023-11-19T07:59:49;22.50;;;4.43;;
18905;SDS011;9585;51.018;4.282;2023-11-19T08:02:22;22.80;;;4.10;;
18905;SDS011;9585;51.018;4.282;2023-11-19T08:04:50;26.20;;;5.78;;
18905;SDS011;9585;51.018;4.282;2023-11-19T08:07:26;22.33;;;4.80;;
18905;SDS011;9585;51.018;4.282;2023-11-19T08:09:57;21.38;;;4.18;;
18905;SDS011;9585;51.018;4.282;2023-11-19T08:12:27;21.58;;;4.03;;
18905;SDS011;9585;51.018;4.282;2023-11-19T08:15:00;23.30;;;4.80;;
18905;SDS011;9585;51.018;4.282;2023-11-19T08:17:44;20.98;;;4.47;;
18905;SDS011;9585;51.018;4.282;2023-11-19T08:20:12;26.15;;;4.90;;
18905;SDS011;9585;51.018;4.282;2023-11-19T08:22:42;20.92;;;4.28;;
18905;SDS011;9585;51.018;4.282;2023-11-19T08:25:12;15.85;;;3.75;;
18905;SDS011;9585;51.018;4.282;2023-11-19T08:27:42;20.85;;;4.15;;
18905;SDS011;9585;51.018;4.282;2023-11-19T08:30:17;22.75;;;4.00;;
18905;SDS011;9585;51.018;4.282;2023-11-19T08:41:13;19.73;;;3.88;;
18905;SDS011;9585;51.018;4.282;2023-11-19T08:43:46;18.55;;;3.67;;
18905;SDS011;9585;51.018;4.282;2023-11-19T08:46:28;19.63;;;3.85;;
18905;SDS011;9585;51.018;4.282;2023-11-19T08:49:13;18.63;;;4.20;;
18905;SDS011;9585;51.018;4.282;2023-11-19T08:51:54;18.83;;;3.47;;
18905;SDS011;9585;51.018;4.282;2023-11-19T08:57:33;20.15;;;3.83;;
18905;SDS011;9585;51.018;4.282;2023-11-19T09:00:19;18.65;;;4.00;;
18905;SDS011;9585;51.018;4.282;2023-11-19T09:02:48;19.35;;;4.35;;
18905;SDS011;9585;51.018;4.282;2023-11-19T09:05:26;18.83;;;4.57;;
18905;SDS011;9585;51.018;4.282;2023-11-19T09:08:02;19.95;;;3.90;;
18905;SDS011;9585;51.018;4.282;2023-11-19T09:11:03;20.17;;;3.70;;
18905;SDS011;9585;51.018;4.282;2023-11-19T09:14:03;17.88;;;3.95;;
18905;SDS011;9585;51.018;4.282;2023-11-19T09:16:40;17.67;;;3.35;;
18905;SDS011;9585;51.018;4.282;2023-11-19T09:19:19;15.82;;;3.58;;
18905;SDS011;9585;51.018;4.282;2023-11-19T09:22:03;17.40;;;3.40;;
18905;SDS011;9585;51.018;4.282;2023-11-19T09:24:41;19.92;;;3.35;;
18905;SDS011;9585;51.018;4.282;2023-11-19T09:27:37;15.07;;;3.40;;
18905;SDS011;9585;51.018;4.282;2023-11-19T09:30:22;18.00;;;3.67;;
18905;SDS011;9585;51.018;4.282;2023-11-19T09:33:12;16.20;;;3.45;;
18905;SDS011;9585;51.018;4.282;2023-11-19T09:36:00;12.45;;;3.35;;
18905;SDS011;9585;51.018;4.282;2023-11-19T09:41:59;18.60;;;3.72;;
18905;SDS011;9585;51.018;4.282;2023-11-19T09:44:35;15.40;;;3.28;;
18905;SDS011;9585;51.018;4.282;2023-11-19T09:50:49;14.75;;;3.28;;
18905;SDS011;9585;51.018;4.282;2023-11-19T09:53:42;16.13;;;3.15;;
18905;SDS011;9585;51.018;4.282;2023-11-19T09:56:33;14.88;;;3.30;;
18905;SDS011;9585;51.018;4.282;2023-11-19T09:59:19;13.32;;;3.13;;
18905;SDS011;9585;51.018;4.282;2023-11-19T10:01:51;17.83;;;3.97;;
18905;SDS011;9585;51.018;4.282;2023-11-19T10:04:48;14.90;;;3.20;;
18905;SDS011;9585;51.018;4.282;2023-11-19T10:10:30;16.55;;;3.70;;
18905;SDS011;9585;51.018;4.282;2023-11-19T10:13:14;20.80;;;3.78;;
18905;SDS011;9585;51.018;4.282;2023-11-19T10:15:48;13.15;;;3.42;;
18905;SDS011;9585;51.018;4.282;2023-11-19T10:18:26;15.43;;;3.42;;
18905;SDS011;9585;51.018;4.282;2023-11-19T10:21:01;16.33;;;3.30;;
18905;SDS011;9585;51.018;4.282;2023-11-19T10:23:51;15.10;;;3.45;;
18905;SDS011;9585;51.018;4.282;2023-11-19T10:29:08;16.30;;;3.45;;
18905;SDS011;9585;51.018;4.282;2023-11-19T10:31:48;14.90;;;2.80;;
18905;SDS011;9585;51.018;4.282;2023-11-19T10:34:41;17.30;;;3.47;;
18905;SDS011;9585;51.018;4.282;2023-11-19T10:37:30;15.35;;;3.33;;
18905;SDS011;9585;51.018;4.282;2023-11-19T10:40:14;15.73;;;3.50;;
18905;SDS011;9585;51.018;4.282;2023-11-19T10:43:07;18.50;;;3.78;;
18905;SDS011;9585;51.018;4.282;2023-11-19T10:45:43;19.00;;;3.78;;
18905;SDS011;9585;51.018;4.282;2023-11-19T10:48:26;16.02;;;3.42;;
18905;SDS011;9585;51.018;4.282;2023-11-19T10:51:10;14.07;;;3.13;;
18905;SDS011;9585;51.018;4.282;2023-11-19T10:53:54;13.80;;;3.35;;
18905;SDS011;9585;51.018;4.282;2023-11-19T10:56:29;16.52;;;3.47;;
18905;SDS011;9585;51.018;4.282;2023-11-19T10:59:05;16.70;;;3.47;;
18905;SDS011;9585;51.018;4.282;2023-11-19T11:01:43;14.13;;;3.75;;
18905;SDS011;9585;51.018;4.282;2023-11-19T11:04:15;15.20;;;3.60;;
18905;SDS011;9585;51.018;4.282;2023-11-19T11:06:59;14.00;;;3.25;;
18905;SDS011;9585;51.018;4.282;2023-11-19T11:09:46;17.48;;;3.53;;
18905;SDS011;9585;51.018;4.282;2023-11-19T11:12:25;13.93;;;3.00;;
18905;SDS011;9585;51.018;4.282;2023-11-19T11:14:53;14.98;;;3.22;;
18905;SDS011;9585;51.018;4.282;2023-11-19T11:17:23;17.75;;;3.47;;
18905;SDS011;9585;51.018;4.282;2023-11-19T11:19:57;11.68;;;3.05;;
18905;SDS011;9585;51.018;4.282;2023-11-19T11:22:33;17.40;;;3.60;;
18905;SDS011;9585;51.018;4.282;2023-11-19T11:25:19;13.60;;;2.75;;
18905;SDS011;9585;51.018;4.282;2023-11-19T11:28:10;12.60;;;2.95;;
18905;SDS011;9585;51.018;4.282;2023-11-19T11:31:15;15.63;;;3.60;;
18905;SDS011;9585;51.018;4.282;2023-11-19T11:34:15;16.80;;;3.28;;
18905;SDS011;9585;51.018;4.282;2023-11-19T11:37:07;15.30;;;3.50;;
18905;SDS011;9585;51.018;4.282;2023-11-19T11:39:45;13.82;;;3.72;;
18905;SDS011;9585;51.018;4.282;2023-11-19T11:42:33;15.38;;;3.15;;
18905;SDS011;9585;51.018;4.282;2023-11-19T11:45:04;12.38;;;3.10;;
18905;SDS011;9585;51.018;4.282;2023-11-19T11:50:48;15.13;;;3.60;;
18905;SDS011;9585;51.018;4.282;2023-11-19T11:53:29;13.38;;;3.05;;
18905;SDS011;9585;51.018;4.282;2023-11-19T11:56:05;14.02;;;3.40;;
18905;SDS011;9585;51.018;4.282;2023-11-19T11:58:36;13.00;;;3.45;;
18905;SDS011;9585;51.018;4.282;2023-11-19T12:01:30;13.40;;;3.40;;
18905;SDS011;9585;51.018;4.282;2023-11-19T12:07:21;15.05;;;2.85;;
18905;SDS011;9585;51.018;4.282;2023-11-19T12:10:08;16.30;;;3.38;;
18905;SDS011;9585;51.018;4.282;2023-11-19T12:16:19;15.15;;;3.65;;
18905;SDS011;9585;51.018;4.282;2023-11-19T12:19:16;16.67;;;3.80;;
18905;SDS011;9585;51.018;4.282;2023-11-19T12:22:23;18.92;;;3.50;;
18905;SDS011;9585;51.018;4.282;2023-11-19T12:24:56;16.70;;;3.20;;
18905;SDS011;9585;51.018;4.282;2023-11-19T12:27:47;13.02;;;3.00;;
18905;SDS011;9585;51.018;4.282;2023-11-19T12:30:53;15.40;;;2.92;;
18905;SDS011;9585;51.018;4.282;2023-11-19T12:39:26;15.30;;;2.67;;
18905;SDS011;9585;51.018;4.282;2023-11-19T12:42:01;13.63;;;2.80;;
18905;SDS011;9585;51.018;4.282;2023-11-19T12:44:32;16.80;;;3.55;;
18905;SDS011;9585;51.018;4.282;2023-11-19T12:49:56;14.02;;;3.05;;
18905;SDS011;9585;51.018;4.282;2023-11-19T12:52:26;11.88;;;3.25;;
18905;SDS011;9585;51.018;4.282;2023-11-19T12:55:05;13.27;;;2.95;;
18905;SDS011;9585;51.018;4.282;2023-11-19T12:57:52;16.70;;;3.17;;
18905;SDS011;9585;51.018;4.282;2023-11-19T13:00:21;16.60;;;3.08;;
18905;SDS011;9585;51.018;4.282;2023-11-19T13:02:52;17.13;;;3.72;;
18905;SDS011;9585;51.018;4.282;2023-11-19T13:05:42;14.88;;;3.20;;
18905;SDS011;9585;51.018;4.282;2023-11-19T13:08:13;15.18;;;3.13;;
18905;SDS011;9585;51.018;4.282;2023-11-19T13:17:00;15.43;;;3.17;;
18905;SDS011;9585;51.018;4.282;2023-11-19T13:23:04;15.15;;;3.58;;
18905;SDS011;9585;51.018;4.282;2023-11-19T13:25:56;17.58;;;3.28;;
18905;SDS011;9585;51.018;4.282;2023-11-19T13:28:34;17.25;;;3.53;;
18905;SDS011;9585;51.018;4.282;2023-11-19T13:31:19;14.80;;;3.33;;
18905;SDS011;9585;51.018;4.282;2023-11-19T13:34:15;19.08;;;4.10;;
18905;SDS011;9585;51.018;4.282;2023-11-19T13:37:03;16.77;;;3.28;;
18905;SDS011;9585;51.018;4.282;2023-11-19T13:39:45;19.48;;;4.00;;
18905;SDS011;9585;51.018;4.282;2023-11-19T13:42:21;18.73;;;3.55;;
18905;SDS011;9585;51.018;4.282;2023-11-19T13:44:50;14.68;;;3.30;;
18905;SDS011;9585;51.018;4.282;2023-11-19T13:47:22;14.82;;;3.38;;
18905;SDS011;9585;51.018;4.282;2023-11-19T13:49:55;15.85;;;3.30;;
18905;SDS011;9585;51.018;4.282;2023-11-19T13:52:27;17.05;;;3.75;;
18905;SDS011;9585;51.018;4.282;2023-11-19T13:54:57;16.02;;;3.65;;
18905;SDS011;9585;51.018;4.282;2023-11-19T13:57:25;16.55;;;3.55;;
18905;SDS011;9585;51.018;4.282;2023-11-19T13:59:56;17.45;;;3.53;;
18905;SDS011;9585;51.018;4.282;2023-11-19T14:02:38;14.52;;;3.28;;
18905;SDS011;9585;51.018;4.282;2023-11-19T14:05:06;21.98;;;3.83;;
18905;SDS011;9585;51.018;4.282;2023-11-19T14:07:41;18.15;;;3.42;;
18905;SDS011;9585;51.018;4.282;2023-11-19T14:13:13;11.00;;;3.33;;
18905;SDS011;9585;51.018;4.282;2023-11-19T14:15:54;17.83;;;3.55;;
18905;SDS011;9585;51.018;4.282;2023-11-19T14:18:35;18.50;;;3.60;;
18905;SDS011;9585;51.018;4.282;2023-11-19T14:21:07;16.00;;;3.42;;
18905;SDS011;9585;51.018;4.282;2023-11-19T14:23:44;14.43;;;3.30;;
18905;SDS011;9585;51.018;4.282;2023-11-19T14:38:55;19.35;;;3.58;;
18905;SDS011;9585;51.018;4.282;2023-11-19T14:41:38;18.67;;;3.40;;
18905;SDS011;9585;51.018;4.282;2023-11-19T14:44:38;16.55;;;3.65;;
18905;SDS011;9585;51.018;4.282;2023-11-19T14:47:11;14.35;;;3.40;;
18905;SDS011;9585;51.018;4.282;2023-11-19T14:49:51;17.55;;;3.90;;
18905;SDS011;9585;51.018;4.282;2023-11-19T14:52:21;19.60;;;4.03;;
18905;SDS011;9585;51.018;4.282;2023-11-19T14:54:58;16.85;;;3.38;;
18905;SDS011;9585;51.018;4.282;2023-11-19T14:57:31;16.75;;;3.80;;
18905;SDS011;9585;51.018;4.282;2023-11-19T15:00:05;17.58;;;3.92;;
18905;SDS011;9585;51.018;4.282;2023-11-19T15:02:46;16.60;;;3.50;;
18905;SDS011;9585;51.018;4.282;2023-11-19T15:05:17;20.17;;;4.25;;
18905;SDS011;9585;51.018;4.282;2023-11-19T15:07:54;18.67;;;3.92;;
18905;SDS011;9585;51.018;4.282;2023-11-19T15:10:47;18.25;;;3.35;;
18905;SDS011;9585;51.018;4.282;2023-11-19T15:13:26;20.25;;;3.95;;
18905;SDS011;9585;51.018;4.282;2023-11-19T15:16:15;17.05;;;3.83;;
18905;SDS011;9585;51.018;4.282;2023-11-19T15:18:56;19.88;;;3.22;;
18905;SDS011;9585;51.018;4.282;2023-11-19T15:21:31;15.77;;;3.15;;
18905;SDS011;9585;51.018;4.282;2023-11-19T15:24:02;17.00;;;3.42;;
18905;SDS011;9585;51.018;4.282;2023-11-19T15:26:37;22.48;;;3.65;;
18905;SDS011;9585;51.018;4.282;2023-11-19T15:29:09;14.88;;;3.40;;
18905;SDS011;9585;51.018;4.282;2023-11-19T15:31:46;18.83;;;4.07;;
18905;SDS011;9585;51.018;4.282;2023-11-19T15:34:34;18.45;;;3.65;;
18905;SDS011;9585;51.018;4.282;2023-11-19T15:37:25;18.15;;;3.60;;
18905;SDS011;9585;51.018;4.282;2023-11-19T15:40:04;16.13;;;3.35;;
18905;SDS011;9585;51.018;4.282;2023-11-19T15:42:49;16.05;;;3.15;;
18905;SDS011;9585;51.018;4.282;2023-11-19T15:45:23;16.27;;;3.30;;
18905;SDS011;9585;51.018;4.282;2023-11-19T15:47:53;16.40;;;3.38;;
18905;SDS011;9585;51.018;4.282;2023-11-19T15:50:34;21.88;;;4.13;;
18905;SDS011;9585;51.018;4.282;2023-11-19T15:53:09;17.95;;;3.38;;
18905;SDS011;9585;51.018;4.282;2023-11-19T15:55:45;15.38;;;3.10;;
18905;SDS011;9585;51.018;4.282;2023-11-19T15:58:21;14.88;;;3.15;;
18905;SDS011;9585;51.018;4.282;2023-11-19T16:00:52;13.52;;;3.00;;
18905;SDS011;9585;51.018;4.282;2023-11-19T16:03:21;12.15;;;2.58;;
18905;SDS011;9585;51.018;4.282;2023-11-19T16:05:49;14.25;;;3.17;;
18905;SDS011;9585;51.018;4.282;2023-11-19T16:08:20;14.38;;;2.80;;
18905;SDS011;9585;51.018;4.282;2023-11-19T16:10:50;12.65;;;2.67;;
18905;SDS011;9585;51.018;4.282;2023-11-19T16:13:25;12.43;;;2.85;;
18905;SDS011;9585;51.018;4.282;2023-11-19T16:15:56;14.70;;;2.60;;
18905;SDS011;9585;51.018;4.282;2023-11-19T16:18:30;12.13;;;2.65;;
18905;SDS011;9585;51.018;4.282;2023-11-19T16:21:14;14.73;;;2.78;;
18905;SDS011;9585;51.018;4.282;2023-11-19T16:23:45;12.75;;;2.97;;
18905;SDS011;9585;51.018;4.282;2023-11-19T16:26:13;15.48;;;3.20;;
18905;SDS011;9585;51.018;4.282;2023-11-19T16:31:33;9.32;;;2.35;;
18905;SDS011;9585;51.018;4.282;2023-11-19T16:34:01;13.57;;;2.58;;
18905;SDS011;9585;51.018;4.282;2023-11-19T16:36:58;13.18;;;3.08;;